Date,TemperatureHighF,TemperatureAvgF,TemperatureLowF,DewpointHighF,DewpointAvgF,DewpointLowF,HumidityHigh,HumidityAvg,HumidityLow,PressureMaxIn,PressureMinIn,WindSpeedMaxMPH,WindSpeedAvgMPH,GustSpeedMaxMPH,PrecipitationSumIn
2013-3-1,37.7,32.2,29.6,31.0,28.4,27.0,98,86,68,29.73,29.57,6,1,12,0.00
2013-3-2,35.6,30.0,24.2,28.0,25.5,22.0,95,84,63,29.75,29.69,7,1,11,0.00
2013-3-3,33.4,27.0,22.2,26.0,23.0,20.0,93,85,74,29.72,29.64,5,1,11,0.14
2013-3-4,29.7,25.9,23.6,22.0,20.2,19.0,87,79,66,29.86,29.67,12,2,13,0.00
2013-3-5,40.2,29.9,24.5,29.0,24.3,20.0,95,80,63,30.10,29.86,7,1,10,0.00
2013-3-6,40.9,34.0,24.8,30.0,25.1,22.0,95,72,52,30.20,30.09,12,2,15,0.00
2013-3-7,37.5,33.7,31.0,24.0,22.6,21.0,69,64,56,30.19,30.12,7,2,12,0.00
2013-3-8,44.8,33.2,24.7,27.0,23.6,22.0,91,69,43,30.31,30.12,9,2,14,0.00
2013-3-9,53.5,32.5,17.1,25.0,20.7,15.0,93,69,24,30.35,30.26,5,1,10,0.00
2013-3-10,51.9,35.6,20.3,30.0,23.7,19.0,93,67,33,30.36,30.16,9,2,13,0.00
2013-3-11,46.0,39.4,32.2,34.0,30.7,29.0,88,73,54,30.20,29.99,7,2,13,0.00
2013-3-12,42.9,38.9,35.8,42.0,37.4,33.0,98,94,81,30.00,29.68,5,1,9,0.83
2013-3-13,41.9,35.4,29.3,36.0,31.1,24.0,98,86,51,29.80,29.72,8,1,10,0.02
2013-3-14,29.8,24.5,16.9,28.0,16.7,5.0,97,74,52,29.89,29.71,13,3,16,0.00
2013-3-15,34.4,24.1,14.6,28.0,12.6,4.0,92,64,36,29.90,29.58,10,2,15,0.00
2013-3-16,30.1,24.1,16.1,22.0,13.4,8.0,87,65,44,29.92,29.70,7,2,14,0.05
2013-3-17,26.0,16.0,6.7,12.0,5.1,-1.0,88,65,34,30.35,29.91,10,2,22,0.00
2013-3-18,34.3,19.9,2.6,16.0,4.0,-3.0,86,56,22,30.47,30.16,5,1,9,0.00
2013-3-19,31.2,28.5,25.9,29.0,26.0,14.0,95,90,52,30.15,29.71,6,1,13,0.01
2013-3-20,33.2,27.3,18.4,28.0,22.7,17.0,95,83,59,29.71,29.63,6,1,11,0.16
2013-3-21,37.8,23.9,9.2,23.0,14.4,7.0,93,71,36,29.73,29.62,7,1,9,0.34
2013-3-22,37.4,24.1,9.6,24.0,16.0,7.0,92,74,44,29.74,29.63,7,2,17,0.04
2013-3-23,35.3,30.7,25.4,27.0,23.8,21.0,92,76,56,29.78,29.64,10,3,20,0.11
2013-3-24,41.6,32.8,23.6,27.0,23.8,20.0,87,70,48,29.86,29.77,9,2,14,0.01
2013-3-25,45.9,32.5,17.1,28.0,22.0,15.0,92,68,39,29.82,29.55,6,2,11,0.00
2013-3-26,46.1,36.7,26.9,26.0,23.6,20.0,87,61,37,29.80,29.60,7,2,15,0.00
2013-3-27,47.5,34.0,22.3,32.0,26.6,21.0,94,76,43,29.92,29.77,11,2,18,0.00
2013-3-28,48.8,37.5,31.8,36.0,31.7,29.0,97,81,50,30.04,29.91,9,1,12,0.01
2013-3-29,46.4,38.2,31.8,37.0,32.7,29.0,97,82,57,30.06,30.00,6,1,12,0.02
2013-3-30,49.2,36.8,26.0,32.0,22.8,12.0,96,64,23,30.11,30.03,8,2,16,0.00
2013-3-31,53.5,39.1,20.8,36.0,24.5,19.0,93,61,31,30.11,29.75,14,3,18,0.01